Norwegian Sky — C6PZ8 — position and weather

sailwx.info

Track history (hours):
 
Tides and Currents Weather Stations Pressure Air Temp Water Temp Dewpoint Dewpoint Depression Visibility Wind Speed Wind Dir Waves Ship Positions

Norwegian Sky (Norway)

Operator: Norwegian Cruise Line

Last reported at 2018-May-24 04:00 UTC. Time now 2018-May-24 09:59 UTC.
Position N 26°08' W 079°20'.

Length 258 m; draft 8.2 m.

Type: Ship. MMSI: 308865000.

Date/timePositionNaut miles runAvg speedWind from/ knotsBaromVisibWave heightAir tempDewpointWater temp
2018-May-24 04:00N 26°08' W 079°20'917.4
2018-May-24 03:30N 26°01' W 079°26'918.5
2018-May-24 03:00N 25°54' W 079°32'1019.2
2018-May-24 02:30N 25°44' W 079°35'1019.5
2018-May-24 02:00N 25°34' W 079°35'1019.2
2018-May-24 01:30N 25°25' W 079°36'23 0.5
2018-May-21 23:01N 25°22' W 080°01'016.4
2018-May-21 23:00N 25°22' W 080°01'816.2
2018-May-21 22:30N 25°30' W 080°01'816.4
2018-May-21 22:00N 25°38' W 080°01'815.7
2018-May-21 21:30N 25°45' W 080°05'5 9.1
2018-May-21 21:00N 25°46' W 080°09'0 0.7
2018-May-21 20:29N 25°46' W 080°10'0 0.0
2018-May-21 19:56N 25°46' W 080°10'0 0.0
2018-May-21 19:29N 25°46' W 080°10'0 0.0
2018-May-21 18:58N 25°46' W 080°10'0 0.0
2018-May-21 18:28N 25°46' W 080°10'0 0.0
2018-May-21 17:58N 25°46' W 080°10'0 0.0
2018-May-21 17:28N 25°46' W 080°10'0 0.0
2018-May-21 16:58N 25°46' W 080°10'0 0.0
2018-May-21 16:24N 25°46' W 080°10'0 0.0
2018-May-21 16:00N 25°46' W 080°10'0 0.0
2018-May-21 15:30N 25°46' W 080°10'0 0.0
2018-May-21 15:01N 25°46' W 080°10'0 0.0
2018-May-21 14:29N 25°46' W 080°10'0 0.0
2018-May-21 13:53N 25°46' W 080°10'0 0.0
2018-May-21 13:28N 25°46' W 080°10'0 0.0
2018-May-21 12:56N 25°46' W 080°10'0 0.0
2018-May-21 12:28N 25°46' W 080°10'0 0.0
2018-May-21 11:58N 25°46' W 080°10'0 0.0
2018-May-21 11:28N 25°46' W 080°10'0 0.0
2018-May-21 11:00N 25°46' W 080°10'0 0.0
2018-May-21 10:27N 25°46' W 080°10'1 2.6
2018-May-21 10:00N 25°47' W 080°11'3 6.3
2018-May-21 09:30N 25°46' W 080°08'611.2
2018-May-21 09:00N 25°47' W 080°02'510.2
2018-May-21 08:31N 25°47' W 079°56'713.9
2018-May-21 07:59N 25°47' W 079°48'613.3
2018-May-21 07:30N 25°48' W 079°41'813.5
2018-May-21 06:57N 25°54' W 079°36'  
2018-May-19 02:40N 26°06' W 079°22'2 9.5
2018-May-19 02:24N 26°04' W 079°24'4 9.4
2018-May-19 02:00N 26°01' W 079°27'5 9.5
2018-May-19 01:30N 25°58' W 079°31'5 9.4
2018-May-19 01:00N 25°54' W 079°35'5 9.5
2018-May-19 00:30N 25°51' W 079°38'5 9.9
2018-May-19 00:00N 25°48' W 079°43'510.5
2018-May-18 23:30N 25°48' W 079°49'510.2
2018-May-18 23:01N 25°48' W 079°54'510.0
2018-May-18 22:30N 25°48' W 079°60'5 9.8
2018-May-18 22:00N 25°46' W 080°05'5 9.5
2018-May-18 21:30N 25°47' W 080°10'0 0.2
2018-May-18 21:00N 25°47' W 080°10'0 0.1
2018-May-18 20:26N 25°47' W 080°10'0 0.0
2018-May-18 19:59N 25°47' W 080°10'0 0.0
2018-May-18 19:29N 25°47' W 080°10'0 0.0
2018-May-18 18:59N 25°47' W 080°10'0 0.0
2018-May-18 18:26N 25°47' W 080°10'0 0.0
2018-May-18 17:58N 25°47' W 080°10'0 0.0
2018-May-18 17:28N 25°47' W 080°10'0 0.0
2018-May-18 16:58N 25°47' W 080°10'0 0.0
2018-May-18 16:25N 25°47' W 080°10'0 0.0
2018-May-18 15:58N 25°47' W 080°10'0 0.0
2018-May-18 15:30N 25°47' W 080°10'0 0.0
2018-May-18 15:00N 25°47' W 080°10'0 0.0
2018-May-18 14:30N 25°47' W 080°10'0 0.0
2018-May-18 14:00N 25°47' W 080°10'0 0.0
2018-May-18 13:29N 25°47' W 080°10'0 0.0
2018-May-18 12:59N 25°47' W 080°10'0 0.0
2018-May-18 12:29N 25°47' W 080°10'0 0.0
2018-May-18 11:56N 25°47' W 080°10'0 0.0
2018-May-18 11:29N 25°47' W 080°10'0 0.0
2018-May-18 10:58N 25°47' W 080°10'0 0.0
2018-May-18 10:28N 25°47' W 080°10'0 0.0
2018-May-18 10:00N 25°47' W 080°10'1 3.0
2018-May-18 09:30N 25°46' W 080°08'5 9.7
2018-May-18 09:00N 25°47' W 080°03'4 7.9
2018-May-18 08:30N 25°47' W 079°59'4 8.7
2018-May-18 08:00N 25°47' W 079°54'4 8.8
2018-May-18 07:30N 25°48' W 079°49'4 8.6
2018-May-18 07:00N 25°48' W 079°44'4 8.2
2018-May-18 06:30N 25°50' W 079°40'4 8.5
2018-May-18 06:00N 25°53' W 079°37'4 8.6
2018-May-18 05:30N 25°56' W 079°33'4 8.9
2018-May-18 05:00N 25°59' W 079°30'4 8.5
2018-May-18 04:30N 26°02' W 079°27'4 8.0
2018-May-18 04:00N 26°05' W 079°23'4 8.5
2018-May-18 03:30N 26°08' W 079°20'4 8.4
2018-May-18 02:58N 26°09' W 079°16'5 0.2
2018-May-17 03:46N 26°07' W 079°21'312.9
2018-May-17 03:30N 26°04' W 079°23'713.4
2018-May-17 03:00N 25°59' W 079°28'714.0
2018-May-17 02:30N 25°53' W 079°32'714.5
2018-May-17 02:00N 25°46' W 079°35'715.0
2018-May-17 01:30N 25°39' W 079°36'815.0
2018-May-17 01:00N 25°31' W 079°36'27 0.5
2018-May-14 23:54N 25°17' W 080°01'717.0
2018-May-14 23:30N 25°24' W 080°02'917.3
2018-May-14 23:00N 25°33' W 080°02'917.5
2018-May-14 22:30N 25°41' W 080°03'611.0
2018-May-14 22:00N 25°45' W 080°07'3 5.4
2018-May-14 21:28N 25°46' W 080°10'0 0.0
2018-May-14 20:55N 25°46' W 080°10'0 0.0
2018-May-14 20:28N 25°46' W 080°10'0 0.0
2018-May-14 20:00N 25°46' W 080°10'0 0.0
2018-May-14 19:30N 25°46' W 080°10'0 0.0
2018-May-14 19:00N 25°46' W 080°10'0 0.0
2018-May-14 18:30N 25°46' W 080°10'0 0.0
2018-May-14 18:00N 25°46' W 080°10'0 0.0
2018-May-14 17:29N 25°46' W 080°10'0 0.0
2018-May-14 16:59N 25°46' W 080°10'0 0.0
2018-May-14 16:29N 25°46' W 080°10'0 0.0
2018-May-14 15:59N 25°46' W 080°10'0 0.0
2018-May-14 15:28N 25°46' W 080°10'0 0.0
2018-May-14 14:58N 25°46' W 080°10'0 0.0
2018-May-14 14:28N 25°46' W 080°10'0 0.0
2018-May-14 13:58N 25°46' W 080°10'0 0.0
2018-May-14 13:27N 25°46' W 080°10'0 0.0
2018-May-14 13:00N 25°46' W 080°10'0 0.0
2018-May-14 12:27N 25°46' W 080°10'0 0.0
2018-May-14 12:00N 25°46' W 080°10'0 0.0
2018-May-14 11:30N 25°46' W 080°10'0 0.0
2018-May-14 10:57N 25°46' W 080°10'0 0.0
2018-May-14 10:30N 25°46' W 080°10'1 2.1
2018-May-14 10:00N 25°47' W 080°11'2 4.3
2018-May-14 09:30N 25°46' W 080°09'611.4
2018-May-14 09:00N 25°46' W 080°02'611.2
2018-May-14 08:30N 25°47' W 079°56'714.6
2018-May-14 08:00N 25°47' W 079°48'713.8
2018-May-14 07:29N 25°49' W 079°40'713.6
2018-May-14 07:00N 25°53' W 079°35'714.1
2018-May-14 06:30N 25°58' W 079°29'815.5
2018-May-14 06:00N 26°04' W 079°23'  
Track history (hours):
 
Tides and Currents Weather Stations Pressure Air Temp Water Temp Dewpoint Dewpoint Depression Visibility Wind Speed Wind Dir Waves Ship Positions

Norwegian Sky (Norway)

Operator: Norwegian Cruise Line

Last reported at 2018-May-24 04:00 UTC. Time now 2018-May-24 09:59 UTC.
Position N 26°08' W 079°20'.

Length 258 m; draft 8.2 m.

Type: Ship. MMSI: 308865000.

Date/timePositionNaut miles runAvg speedWind from/ knotsBaromVisibWave heightAir tempDewpointWater temp
2018-May-24 04:00N 26°08' W 079°20'917.4
2018-May-24 03:30N 26°01' W 079°26'918.5
2018-May-24 03:00N 25°54' W 079°32'1019.2
2018-May-24 02:30N 25°44' W 079°35'1019.5
2018-May-24 02:00N 25°34' W 079°35'1019.2
2018-May-24 01:30N 25°25' W 079°36'23 0.5
2018-May-21 23:01N 25°22' W 080°01'016.4
2018-May-21 23:00N 25°22' W 080°01'816.2
2018-May-21 22:30N 25°30' W 080°01'816.4
2018-May-21 22:00N 25°38' W 080°01'815.7
2018-May-21 21:30N 25°45' W 080°05'5 9.1
2018-May-21 21:00N 25°46' W 080°09'0 0.7
2018-May-21 20:29N 25°46' W 080°10'0 0.0
2018-May-21 19:56N 25°46' W 080°10'0 0.0
2018-May-21 19:29N 25°46' W 080°10'0 0.0
2018-May-21 18:58N 25°46' W 080°10'0 0.0
2018-May-21 18:28N 25°46' W 080°10'0 0.0
2018-May-21 17:58N 25°46' W 080°10'0 0.0
2018-May-21 17:28N 25°46' W 080°10'0 0.0
2018-May-21 16:58N 25°46' W 080°10'0 0.0
2018-May-21 16:24N 25°46' W 080°10'0 0.0
2018-May-21 16:00N 25°46' W 080°10'0 0.0
2018-May-21 15:30N 25°46' W 080°10'0 0.0
2018-May-21 15:01N 25°46' W 080°10'0 0.0
2018-May-21 14:29N 25°46' W 080°10'0 0.0
2018-May-21 13:53N 25°46' W 080°10'0 0.0
2018-May-21 13:28N 25°46' W 080°10'0 0.0
2018-May-21 12:56N 25°46' W 080°10'0 0.0
2018-May-21 12:28N 25°46' W 080°10'0 0.0
2018-May-21 11:58N 25°46' W 080°10'0 0.0
2018-May-21 11:28N 25°46' W 080°10'0 0.0
2018-May-21 11:00N 25°46' W 080°10'0 0.0
2018-May-21 10:27N 25°46' W 080°10'1 2.6
2018-May-21 10:00N 25°47' W 080°11'3 6.3
2018-May-21 09:30N 25°46' W 080°08'611.2
2018-May-21 09:00N 25°47' W 080°02'510.2
2018-May-21 08:31N 25°47' W 079°56'713.9
2018-May-21 07:59N 25°47' W 079°48'613.3
2018-May-21 07:30N 25°48' W 079°41'813.5
2018-May-21 06:57N 25°54' W 079°36'  
2018-May-19 02:40N 26°06' W 079°22'2 9.5
2018-May-19 02:24N 26°04' W 079°24'4 9.4
2018-May-19 02:00N 26°01' W 079°27'5 9.5
2018-May-19 01:30N 25°58' W 079°31'5 9.4
2018-May-19 01:00N 25°54' W 079°35'5 9.5
2018-May-19 00:30N 25°51' W 079°38'5 9.9
2018-May-19 00:00N 25°48' W 079°43'510.5
2018-May-18 23:30N 25°48' W 079°49'510.2
2018-May-18 23:01N 25°48' W 079°54'510.0
2018-May-18 22:30N 25°48' W 079°60'5 9.8
2018-May-18 22:00N 25°46' W 080°05'5 9.5
2018-May-18 21:30N 25°47' W 080°10'0 0.2
2018-May-18 21:00N 25°47' W 080°10'0 0.1
2018-May-18 20:26N 25°47' W 080°10'0 0.0
2018-May-18 19:59N 25°47' W 080°10'0 0.0
2018-May-18 19:29N 25°47' W 080°10'0 0.0
2018-May-18 18:59N 25°47' W 080°10'0 0.0
2018-May-18 18:26N 25°47' W 080°10'0 0.0
2018-May-18 17:58N 25°47' W 080°10'0 0.0
2018-May-18 17:28N 25°47' W 080°10'0 0.0
2018-May-18 16:58N 25°47' W 080°10'0 0.0
2018-May-18 16:25N 25°47' W 080°10'0 0.0
2018-May-18 15:58N 25°47' W 080°10'0 0.0
2018-May-18 15:30N 25°47' W 080°10'0 0.0
2018-May-18 15:00N 25°47' W 080°10'0 0.0
2018-May-18 14:30N 25°47' W 080°10'0 0.0
2018-May-18 14:00N 25°47' W 080°10'0 0.0
2018-May-18 13:29N 25°47' W 080°10'0 0.0
2018-May-18 12:59N 25°47' W 080°10'0 0.0
2018-May-18 12:29N 25°47' W 080°10'0 0.0
2018-May-18 11:56N 25°47' W 080°10'0 0.0
2018-May-18 11:29N 25°47' W 080°10'0 0.0
2018-May-18 10:58N 25°47' W 080°10'0 0.0
2018-May-18 10:28N 25°47' W 080°10'0 0.0
2018-May-18 10:00N 25°47' W 080°10'1 3.0
2018-May-18 09:30N 25°46' W 080°08'5 9.7
2018-May-18 09:00N 25°47' W 080°03'4 7.9
2018-May-18 08:30N 25°47' W 079°59'4 8.7
2018-May-18 08:00N 25°47' W 079°54'4 8.8
2018-May-18 07:30N 25°48' W 079°49'4 8.6
2018-May-18 07:00N 25°48' W 079°44'4 8.2
2018-May-18 06:30N 25°50' W 079°40'4 8.5
2018-May-18 06:00N 25°53' W 079°37'4 8.6
2018-May-18 05:30N 25°56' W 079°33'4 8.9
2018-May-18 05:00N 25°59' W 079°30'4 8.5
2018-May-18 04:30N 26°02' W 079°27'4 8.0
2018-May-18 04:00N 26°05' W 079°23'4 8.5
2018-May-18 03:30N 26°08' W 079°20'4 8.4
2018-May-18 02:58N 26°09' W 079°16'5 0.2
2018-May-17 03:46N 26°07' W 079°21'312.9
2018-May-17 03:30N 26°04' W 079°23'713.4
2018-May-17 03:00N 25°59' W 079°28'714.0
2018-May-17 02:30N 25°53' W 079°32'714.5
2018-May-17 02:00N 25°46' W 079°35'715.0
2018-May-17 01:30N 25°39' W 079°36'815.0
2018-May-17 01:00N 25°31' W 079°36'27 0.5
2018-May-14 23:54N 25°17' W 080°01'717.0
2018-May-14 23:30N 25°24' W 080°02'917.3
2018-May-14 23:00N 25°33' W 080°02'917.5
2018-May-14 22:30N 25°41' W 080°03'611.0
2018-May-14 22:00N 25°45' W 080°07'3 5.4
2018-May-14 21:28N 25°46' W 080°10'0 0.0
2018-May-14 20:55N 25°46' W 080°10'0 0.0
2018-May-14 20:28N 25°46' W 080°10'0 0.0
2018-May-14 20:00N 25°46' W 080°10'0 0.0
2018-May-14 19:30N 25°46' W 080°10'0 0.0
2018-May-14 19:00N 25°46' W 080°10'0 0.0
2018-May-14 18:30N 25°46' W 080°10'0 0.0
2018-May-14 18:00N 25°46' W 080°10'0 0.0
2018-May-14 17:29N 25°46' W 080°10'0 0.0
2018-May-14 16:59N 25°46' W 080°10'0 0.0
2018-May-14 16:29N 25°46' W 080°10'0 0.0
2018-May-14 15:59N 25°46' W 080°10'0 0.0
2018-May-14 15:28N 25°46' W 080°10'0 0.0
2018-May-14 14:58N 25°46' W 080°10'0 0.0
2018-May-14 14:28N 25°46' W 080°10'0 0.0
2018-May-14 13:58N 25°46' W 080°10'0 0.0
2018-May-14 13:27N 25°46' W 080°10'0 0.0
2018-May-14 13:00N 25°46' W 080°10'0 0.0
2018-May-14 12:27N 25°46' W 080°10'0 0.0
2018-May-14 12:00N 25°46' W 080°10'0 0.0
2018-May-14 11:30N 25°46' W 080°10'0 0.0
2018-May-14 10:57N 25°46' W 080°10'0 0.0
2018-May-14 10:30N 25°46' W 080°10'1 2.1
2018-May-14 10:00N 25°47' W 080°11'2 4.3
2018-May-14 09:30N 25°46' W 080°09'611.4
2018-May-14 09:00N 25°46' W 080°02'611.2
2018-May-14 08:30N 25°47' W 079°56'714.6
2018-May-14 08:00N 25°47' W 079°48'713.8
2018-May-14 07:29N 25°49' W 079°40'713.6
2018-May-14 07:00N 25°53' W 079°35'714.1
2018-May-14 06:30N 25°58' W 079°29'815.5
2018-May-14 06:00N 26°04' W 079°23'  

Dump ship's entire track history